Time;durP1;ratioP1;P1;durP2;ratioP2;P2;SDS_P1;SDS_P2;PMS_P1;PMS_P2;Temp;Humidity;BMP_temperature;BMP_pressure;BME280_temperature;BME280_humidity;BME280_pressure;Samples;Min_cycle;Max_cycle;Signal;HPM_P1;HPM_P2
2023/06/05 00:00:31;;;;;;;13.98;3.63;;;;;;;10.16;61.01;100028.28;6127573;23;20658;-85
2023/06/05 00:03:33;;;;;;;12.23;3.92;;;;;;;10.17;61.25;100033.50;6127910;23;20080;-87
2023/06/05 00:10:16;;;;;;;;;;;;;;;10.19;60.97;100025.78;6152564;23;20124;-86
2023/06/05 00:12:42;;;;;;;8.32;3.88;;;;;;;10.00;60.85;100005.81;6161713;23;19916;-88
2023/06/05 00:15:20;;;;;;;6.38;3.75;;;;;;;9.96;60.84;99997.41;6182783;23;20012;-88
2023/06/05 00:17:47;;;;;;;5.50;3.20;;;;;;;9.98;60.54;99997.13;6182677;23;20021;-88
2023/06/05 00:21:03;;;;;;;6.72;3.53;;;;;;;9.94;60.83;99974.25;6183791;23;20031;-87
2023/06/05 00:27:43;;;;;;;6.82;3.55;;;;;;;9.97;59.98;99949.06;6185897;23;20028;-88
2023/06/05 00:31:03;;;;;;;7.20;3.38;;;;;;;10.52;59.71;100029.47;6183756;23;20107;-88
2023/06/05 00:33:54;;;;;;;12.05;3.75;;;;;;;10.58;59.47;100027.50;6184587;23;20626;-87
2023/06/05 00:36:24;;;;;;;8.30;3.13;;;;;;;10.38;59.60;99990.31;6184717;23;20077;-87
2023/06/05 01:01:11;;;;;;;7.45;3.20;;;;;;;10.91;58.91;100035.75;6040617;23;20118;-87
2023/06/05 01:04:08;;;;;;;6.47;3.17;;;;;;;10.93;58.89;100028.88;6064265;23;20025;-86
2023/06/05 01:06:57;;;;;;;7.63;3.38;;;;;;;10.96;58.92;100028.28;6018678;23;20353;-86
2023/06/05 01:13:22;;;;;;;11.77;3.30;;;;;;;11.01;58.35;100030.13;6184703;23;19944;-87
2023/06/05 01:19:52;;;;;;;10.10;3.70;;;;;;;11.09;57.94;100026.69;6184181;23;20028;-85
2023/06/05 01:23:11;;;;;;;5.38;3.47;;;;;;;11.01;58.35;100021.91;6157965;23;20056;-85
2023/06/05 01:29:36;;;;;;;7.85;3.08;;;;;;;10.64;57.83;99962.63;6184318;23;20096;-86
2023/06/05 01:33:02;;;;;;;15.05;3.50;;;;;;;11.10;58.47;100022.06;6093963;23;20021;-86
2023/06/05 01:35:47;;;;;;;10.13;3.60;;;;;;;10.87;57.96;99980.03;6132603;23;20021;-84
2023/06/05 01:38:15;;;;;;;8.00;3.13;;;;;;;11.02;58.11;99999.72;6157342;23;20028;-87
2023/06/05 01:40:50;;;;;;;6.30;3.42;;;;;;;11.09;58.39;99998.53;6157454;23;20021;-86
2023/06/05 01:43:18;;;;;;;5.65;3.40;;;;;;;11.13;58.25;99991.38;6157937;23;20017;-85
2023/06/05 01:46:46;;;;;;;9.27;3.70;;;;;;;11.26;58.24;100015.22;6157827;23;20044;-87
2023/06/05 01:53:32;;;;;;;9.40;3.45;;;;;;;10.98;58.51;99976.81;6093658;23;20029;-85
2023/06/05 01:57:00;;;;;;;7.53;3.53;;;;;;;11.35;58.41;100029.81;6068603;23;20077;-87
2023/06/05 01:59:53;;;;;;;5.90;3.05;;;;;;;11.37;57.94;100024.06;6178617;23;20094;-88
2023/06/05 02:10:12;;;;;;;6.68;3.50;;;;;;;11.35;57.77;100042.69;6004853;23;20378;-87
2023/06/05 02:13:18;;;;;;;6.68;3.17;;;;;;;11.34;57.16;100033.69;6030428;23;20064;-86
2023/06/05 02:15:45;;;;;;;7.40;3.30;;;;;;;11.34;57.34;100030.94;5984164;23;20019;-88
2023/06/05 02:18:12;;;;;;;7.28;3.20;;;;;;;11.34;57.31;100028.19;6050163;22;21069;-88
2023/06/05 02:26:22;;;;;;;7.18;3.35;;;;;;;11.60;56.57;100041.44;6183665;23;20028;-90
2023/06/05 02:28:48;;;;;;;7.32;3.05;;;;;;;11.47;56.72;100010.19;6181856;23;20028;-89
2023/06/05 02:32:16;;;;;;;9.55;3.13;;;;;;;11.71;56.34;100040.94;6132789;23;20017;-87
2023/06/05 02:35:53;;;;;;;10.55;3.80;;;;;;;11.81;56.73;100036.38;6181943;23;20020;-88
2023/06/05 02:39:12;;;;;;;8.55;3.47;;;;;;;11.80;56.51;100035.59;6157418;23;20028;-92
2023/06/05 02:42:37;;;;;;;6.10;3.17;;;;;;;11.76;57.18;100040.06;6156278;23;20013;-87
2023/06/05 02:45:47;;;;;;;6.50;3.20;;;;;;;11.85;56.52;100049.19;6181988;23;20571;-87
2023/06/05 02:48:13;;;;;;;14.75;3.50;;;;;;;11.71;56.01;100020.97;6157069;23;20025;-88
2023/06/05 02:51:39;;;;;;;12.88;3.20;;;;;;;11.90;56.08;100054.59;6181704;23;20024;-87
2023/06/05 02:54:39;;;;;;;;;;;;;;;11.98;56.03;100047.59;6183025;23;20068;-90
2023/06/05 02:57:40;;;;;;;9.73;3.75;;;;;;;11.95;56.66;100043.53;6158109;23;19916;-87
2023/06/05 03:01:43;;;;;;;8.32;3.55;;;;;;;12.01;57.01;100046.97;6158188;23;20032;-88
2023/06/05 03:04:55;;;;;;;8.55;3.60;;;;;;;11.96;56.85;100055.31;6156879;23;20424;-88
2023/06/05 03:08:30;;;;;;;6.25;3.47;;;;;;;11.93;56.40;100055.91;6150699;23;20104;-88
2023/06/05 03:11:15;;;;;;;5.88;3.40;;;;;;;11.56;56.39;100013.84;6126239;23;20100;-87
2023/06/05 03:14:34;;;;;;;6.32;2.88;;;;;;;11.92;56.95;100055.13;6102332;23;20549;-87
2023/06/05 03:22:12;;;;;;;11.55;3.60;;;;;;;12.34;56.54;100050.41;6034853;23;20034;-88
2023/06/05 03:25:53;;;;;;;9.50;4.00;;;;;;;12.34;56.59;100055.09;6005234;23;20433;-89
2023/06/05 03:29:10;;;;;;;12.35;3.70;;;;;;;12.38;56.62;100067.06;5959745;23;20576;-87
2023/06/05 03:33:22;;;;;;;9.80;3.50;;;;;;;12.48;56.88;100055.06;5947322;24;20036;-89
2023/06/05 03:40:12;;;;;;;9.02;3.72;;;;;;;12.40;57.50;99988.84;5894930;24;20032;-88
2023/06/05 03:47:48;;;;;;;11.77;4.30;;;;;;;12.68;56.64;99984.13;5916210;24;20540;-89
2023/06/05 03:51:03;;;;;;;8.13;3.35;;;;;;;12.80;56.18;99991.78;5910444;24;20032;-88
2023/06/05 03:53:30;;;;;;;14.75;4.25;;;;;;;12.86;56.20;99997.97;5900180;24;20164;-86
2023/06/05 04:19:20;;;;;;;9.73;3.75;;;;;;;13.38;55.47;99973.63;6158661;23;20072;-87
2023/06/05 04:22:54;;;;;;;10.23;3.80;;;;;;;13.91;54.68;100029.59;6124584;23;20033;-87
2023/06/05 04:25:45;;;;;;;8.02;3.63;;;;;;;14.08;55.55;100029.66;6102112;23;20460;-88
2023/06/05 04:28:12;;;;;;;6.55;3.63;;;;;;;14.27;54.26;100030.22;6101635;23;20037;-87
2023/06/05 04:30:41;;;;;;;8.73;4.32;;;;;;;13.93;54.11;99951.19;6068438;23;20421;-87
2023/06/05 04:33:32;;;;;;;5.90;3.88;;;;;;;14.50;53.57;100030.06;6097611;23;20260;-87
2023/06/05 04:35:59;;;;;;;6.85;3.70;;;;;;;14.28;53.40;99996.06;6048600;23;20041;-88
2023/06/05 04:38:37;;;;;;;16.45;3.80;;;;;;;14.41;53.18;100021.81;6047187;23;20018;-87
2023/06/05 04:41:03;;;;;;;6.78;3.60;;;;;;;14.32;53.43;100034.75;6071783;23;20018;-86
2023/06/05 04:43:29;;;;;;;11.88;4.20;;;;;;;14.32;55.22;100007.22;6071590;23;20018;-87
2023/06/05 04:46:00;;;;;;;10.13;4.18;;;;;;;14.67;55.13;100038.41;6069128;23;20401;-87
2023/06/05 04:48:27;;;;;;;11.57;3.80;;;;;;;14.64;55.10;100038.22;6068852;23;20022;-86
2023/06/05 04:50:55;;;;;;;5.40;3.45;;;;;;;14.60;54.68;100031.72;6046188;23;20022;-87
2023/06/05 04:53:22;;;;;;;10.50;4.05;;;;;;;14.60;55.21;100034.47;6068673;23;20478;-86
2023/06/05 04:56:07;;;;;;;9.13;3.97;;;;;;;14.41;54.30;100041.06;6093875;23;20460;-86
2023/06/05 04:59:01;;;;;;;10.20;4.07;;;;;;;14.41;55.48;100037.53;6050726;23;20021;-87
2023/06/05 05:01:29;;;;;;;7.30;3.88;;;;;;;14.45;55.26;100036.53;6063120;23;20018;-89
2023/06/05 05:03:59;;;;;;;5.60;3.78;;;;;;;14.53;55.24;100044.00;6063302;23;20433;-88
2023/06/05 05:06:26;;;;;;;11.02;3.90;;;;;;;14.37;54.30;100009.00;6040554;23;20045;-87
2023/06/05 05:09:04;;;;;;;7.10;4.00;;;;;;;14.22;54.64;99966.28;6066063;23;20101;-86
2023/06/05 05:11:30;;;;;;;17.52;3.97;;;;;;;14.67;55.12;100010.88;6039627;23;20030;-87
2023/06/05 05:14:18;;;;;;;11.15;4.20;;;;;;;14.39;54.84;99951.75;6065188;23;20026;-86
2023/06/05 05:16:55;;;;;;;12.18;4.85;;;;;;;14.50;54.02;99972.28;6092659;23;20022;-85
2023/06/05 05:19:22;;;;;;;9.75;3.97;;;;;;;14.86;54.47;100034.50;6069438;23;20512;-87
2023/06/05 05:21:57;;;;;;;12.25;4.35;;;;;;;14.60;53.88;99980.25;6068755;23;20465;-91
2023/06/05 05:24:24;;;;;;;6.30;4.22;;;;;;;15.14;53.78;100035.78;6092689;23;20052;-86
2023/06/05 05:29:26;;;;;;;8.43;3.88;;;;;;;15.17;52.56;100015.06;6124213;23;20024;-87
2023/06/05 05:32:08;;;;;;;11.35;4.18;;;;;;;15.50;53.97;100032.63;6102938;23;20025;-87
2023/06/05 05:34:34;;;;;;;9.70;3.67;;;;;;;15.44;51.63;100008.34;6098506;23;20481;-86
2023/06/05 05:37:31;;;;;;;12.25;3.95;;;;;;;15.90;53.35;100037.88;6099073;23;20022;-87
2023/06/05 05:47:43;;;;;;;11.68;3.85;;;;;;;16.30;48.83;100015.44;6184077;23;20074;-88
2023/06/05 05:50:15;;;;;;;10.48;4.53;;;;;;;16.01;49.76;100010.75;6134313;23;20096;-89
2023/06/05 05:57:11;;;;;;;12.13;4.25;;;;;;;15.88;51.00;100004.31;6185140;23;20031;-88
2023/06/05 06:05:02;;;;;;;13.20;4.07;;;;;;;16.63;49.49;100051.44;6182292;23;20188;-86
2023/06/05 06:08:17;;;;;;;11.80;3.20;;;;;;;16.32;48.81;100021.44;6167242;23;20366;-87
2023/06/05 06:11:39;;;;;;;9.27;3.33;;;;;;;16.39;50.34;100015.38;6078025;23;20560;-88
2023/06/05 06:19:27;;;;;;;12.75;2.80;;;;;;;16.68;50.29;100037.41;6061780;23;20033;-89
2023/06/05 06:21:56;;;;;;;5.97;2.38;;;;;;;16.09;49.48;99987.00;6039739;23;20023;-90
2023/06/05 06:24:24;;;;;;;4.90;2.70;;;;;;;16.30;49.52;100000.84;6037113;23;20018;-89
2023/06/05 06:28:43;;;;;;;9.25;3.58;;;;;;;16.54;49.42;100045.16;6006023;23;20034;-89
2023/06/05 06:32:11;;;;;;;6.32;2.72;;;;;;;16.31;50.23;100046.59;5948282;24;20108;-91
2023/06/05 06:35:06;;;;;;;9.88;2.45;;;;;;;16.33;51.62;100044.34;5996270;23;20020;-90
2023/06/05 06:37:35;;;;;;;14.23;2.85;;;;;;;16.04;51.21;100020.31;5979960;23;20168;-89
2023/06/05 06:40:45;;;;;;;13.30;2.58;;;;;;;16.20;51.24;100047.00;5986919;23;20028;-89
2023/06/05 06:43:48;;;;;;;8.45;3.22;;;;;;;16.11;52.17;100043.47;5983511;23;20079;-90
2023/06/05 06:46:18;;;;;;;12.10;2.40;;;;;;;16.06;50.59;100018.00;5934498;23;20016;-92
2023/06/05 06:49:02;;;;;;;5.80;2.40;;;;;;;15.81;52.41;99983.91;6040407;23;20445;-87
2023/06/05 06:51:28;;;;;;;9.77;2.80;;;;;;;16.00;53.51;100042.22;6040841;23;20027;-88
2023/06/05 06:54:05;;;;;;;7.47;2.63;;;;;;;15.73;54.29;99994.66;6064823;23;20377;-91
2023/06/05 06:56:31;;;;;;;4.85;2.75;;;;;;;15.91;55.60;100033.19;6063612;23;20625;-88
2023/06/05 06:58:59;;;;;;;8.82;2.55;;;;;;;15.96;55.25;100033.81;6067759;23;20066;-92
2023/06/05 07:01:28;;;;;;;11.07;3.05;;;;;;;16.07;56.35;100048.03;6090444;23;20456;-92
2023/06/05 07:03:54;;;;;;;7.20;3.35;;;;;;;15.69;55.33;100001.97;6097202;23;20031;-89
2023/06/05 07:06:29;;;;;;;13.20;2.90;;;;;;;15.87;54.73;100027.50;6159075;23;20111;-90
2023/06/05 07:08:55;;;;;;;7.53;2.53;;;;;;;15.70;54.26;100009.09;6187222;23;20024;-86
2023/06/05 07:11:30;;;;;;;6.40;2.72;;;;;;;15.92;55.46;100034.78;6134173;23;20017;-91
2023/06/05 07:14:12;;;;;;;7.95;2.85;;;;;;;16.01;54.34;100037.50;6162817;23;20075;-86
2023/06/05 07:16:38;;;;;;;8.95;3.28;;;;;;;16.05;55.15;100003.41;6160232;23;20024;-89
2023/06/05 07:19:04;;;;;;;5.72;2.90;;;;;;;16.34;55.54;100032.16;6158525;23;20026;-86
2023/06/05 07:21:30;;;;;;;10.88;2.95;;;;;;;16.42;53.89;100015.53;6134890;23;20018;-84
2023/06/05 07:23:56;;;;;;;8.65;2.42;;;;;;;16.59;54.94;100019.31;6106202;23;20024;-91
2023/06/05 07:26:34;;;;;;;16.65;2.85;;;;;;;16.61;53.65;100014.25;6152695;23;20014;-85
2023/06/05 07:29:00;;;;;;;4.60;2.70;;;;;;;16.48;52.57;99984.97;6157908;23;20045;-85
2023/06/05 07:31:26;;;;;;;7.35;2.33;;;;;;;16.73;53.71;100030.09;6155035;23;20017;-90
2023/06/05 07:33:52;;;;;;;8.00;2.50;;;;;;;16.66;52.24;100016.84;6102385;23;20017;-85
2023/06/05 07:36:18;;;;;;;11.07;2.53;;;;;;;16.72;51.92;100028.47;6100844;23;20067;-84
2023/06/05 07:38:44;;;;;;;7.32;2.85;;;;;;;16.68;53.18;100014.53;6123493;23;20075;-84
2023/06/05 07:41:18;;;;;;;13.18;3.30;;;;;;;16.43;51.32;99992.31;6125585;23;20029;-85
2023/06/05 07:43:56;;;;;;;10.13;2.75;;;;;;;16.70;52.87;100034.34;6150901;23;20100;-88
2023/06/05 07:46:34;;;;;;;6.63;2.67;;;;;;;16.53;52.74;99998.59;6125891;23;20024;-88
2023/06/05 07:52:44;;;;;;;5.18;2.50;;;;;;;16.83;52.07;100036.03;6180661;23;20029;-87
2023/06/05 07:55:10;;;;;;;6.05;2.67;;;;;;;16.64;51.77;99992.31;6132507;23;20422;-85
2023/06/05 07:57:37;;;;;;;5.82;2.42;;;;;;;16.50;50.26;99966.94;6154938;23;20542;-87
2023/06/05 08:01:38;;;;;;;5.43;2.72;;;;;;;17.20;52.11;100024.34;6181016;23;20027;-87
2023/06/05 08:04:27;;;;;;;6.90;2.50;;;;;;;17.10;50.74;99979.41;6183012;23;20025;-86
2023/06/05 08:15:09;;;;;;;12.82;2.25;;;;;;;17.24;49.04;99959.78;6041364;23;20459;-87
2023/06/05 08:21:26;;;;;;;5.32;2.42;;;;;;;17.59;49.17;100022.97;6180864;23;20035;-88
2023/06/05 08:23:55;;;;;;;9.27;2.42;;;;;;;17.53;47.84;100008.53;6130588;23;20021;-86
2023/06/05 08:35:49;;;;;;;3.45;2.22;;;;;;;18.06;47.77;100001.25;6159724;23;20437;-88
2023/06/05 08:59:19;;;;;;;5.97;2.42;;;;;;;17.33;47.11;99952.19;6181472;22;20048;-86
2023/06/05 09:01:50;;;;;;;15.15;2.88;;;;;;;17.37;47.33;99960.59;6137317;23;20040;-86
2023/06/05 09:04:16;;;;;;;5.32;2.47;;;;;;;17.33;47.33;99974.31;6188403;23;20013;-89
2023/06/05 09:07:07;;;;;;;7.22;2.20;;;;;;;17.57;47.43;99987.34;6126124;23;20025;-87
2023/06/05 09:14:03;;;;;;;6.55;2.67;;;;;;;17.47;47.50;99951.88;6174446;23;20049;-86
2023/06/05 09:18:19;;;;;;;4.88;2.50;;;;;;;17.78;46.50;99978.19;6062929;23;20504;-87
2023/06/05 09:20:48;;;;;;;4.22;2.40;;;;;;;17.76;47.41;99953.66;6062546;23;20014;-88
2023/06/05 09:29:09;;;;;;;5.80;2.47;;;;;;;17.70;46.87;99913.53;6244175;23;20020;-89
2023/06/05 09:41:19;;;;;;;6.90;2.13;;;;;;;18.12;45.63;99954.78;6123586;23;20100;-87
2023/06/05 09:44:35;;;;;;;4.03;2.10;;;;;;;18.23;46.00;99950.38;6061166;23;20070;-87
2023/06/05 09:47:05;;;;;;;5.93;2.03;;;;;;;18.49;45.27;99946.41;6066817;23;20480;-88
2023/06/05 09:50:27;;;;;;;3.90;2.15;;;;;;;18.72;46.01;99941.97;6063728;23;20354;-90
2023/06/05 09:57:38;;;;;;;10.98;2.75;;;;;;;19.22;44.35;99936.97;6072857;23;20033;-86
2023/06/05 10:00:28;;;;;;;5.95;2.30;;;;;;;19.26;43.23;99910.16;6049166;23;20022;-87
2023/06/05 10:06:57;;;;;;;4.32;2.22;;;;;;;19.99;41.88;99921.84;6213628;23;20032;-89
2023/06/05 10:14:21;;;;;;;5.45;2.50;;;;;;;19.00;41.85;99858.81;6182210;23;20062;-89
2023/06/05 10:24:49;;;;;;;4.25;2.50;;;;;;;18.50;43.46;99918.34;6047110;23;20069;-87
2023/06/05 10:39:30;;;;;;;8.60;2.67;;;;;;;18.22;42.93;99871.28;6187243;23;20464;-87
2023/06/05 10:41:59;;;;;;;10.10;2.78;;;;;;;18.24;43.58;99895.81;6153058;23;20021;-87
2023/06/05 10:44:41;;;;;;;11.32;2.78;;;;;;;18.54;43.50;99929.53;6133209;23;20478;-88
2023/06/05 10:48:17;;;;;;;7.68;3.28;;;;;;;18.61;44.82;99929.75;6139375;23;20463;-87
2023/06/05 10:51:46;;;;;;;5.72;1.98;;;;;;;18.78;43.68;99935.03;6109033;23;20486;-87
2023/06/05 10:58:28;;;;;;;12.43;3.08;;;;;;;18.35;42.29;99843.56;5931915;24;20025;-88
2023/06/05 11:04:47;;;;;;;4.95;2.50;;;;;;;18.71;42.76;99909.06;6157338;23;20025;-87
2023/06/05 11:18:40;;;;;;;7.18;2.10;;;;;;;19.68;36.94;99901.31;6156512;23;20456;-89
2023/06/05 11:21:42;;;;;;;8.13;2.83;;;;;;;19.55;38.88;99853.44;6127384;23;20021;-86
2023/06/05 11:24:25;;;;;;;4.45;2.05;;;;;;;19.58;36.29;99849.16;6150538;23;20024;-89
2023/06/05 11:26:54;;;;;;;3.83;2.50;;;;;;;19.85;38.24;99889.84;6156599;23;20096;-89
2023/06/05 11:30:24;;;;;;;7.78;2.30;;;;;;;19.66;37.51;99900.88;6152406;23;20014;-90
2023/06/05 11:33:41;;;;;;;4.32;2.05;;;;;;;19.46;36.32;99894.41;6153773;23;20026;-88
2023/06/05 11:36:12;;;;;;;9.82;2.30;;;;;;;19.23;37.71;99853.44;6154557;23;20100;-89
2023/06/05 11:38:38;;;;;;;8.43;2.38;;;;;;;19.14;38.65;99863.09;6160597;23;20022;-87
2023/06/05 11:42:01;;;;;;;6.63;2.30;;;;;;;19.21;40.53;99900.16;6153308;23;20104;-86
2023/06/05 11:44:55;;;;;;;7.88;2.17;;;;;;;19.01;41.87;99893.69;6154777;23;20017;-87
2023/06/05 11:47:33;;;;;;;6.22;2.92;;;;;;;18.46;43.55;99861.28;6125946;23;20018;-88
2023/06/05 11:50:30;;;;;;;17.55;3.00;;;;;;;18.42;44.24;99904.66;6150754;23;20095;-88
2023/06/05 11:56:25;;;;;;;9.18;2.55;;;;;;;17.86;46.56;99861.09;6155623;23;20033;-87
2023/06/05 12:00:22;;;;;;;5.70;2.33;;;;;;;17.60;47.21;99881.59;6128410;23;20033;-88
2023/06/05 12:03:39;;;;;;;8.32;2.70;;;;;;;17.26;51.37;99937.34;6153964;23;20032;-90
2023/06/05 12:06:12;;;;;;;9.10;2.70;;;;;;;17.18;51.86;99929.94;6109121;23;20022;-90
2023/06/05 12:08:41;;;;;;;12.75;3.65;;;;;;;16.84;55.54;99860.94;6110203;23;20024;-91
2023/06/05 12:11:22;;;;;;;14.25;3.08;;;;;;;17.26;51.95;99898.66;6124507;23;20082;-90
2023/06/05 12:13:57;;;;;;;17.85;4.65;;;;;;;17.34;55.94;99900.50;6146525;23;20021;-90
2023/06/05 12:16:34;;;;;;;9.52;4.35;;;;;;;17.60;50.55;99867.78;6130059;23;20040;-89
2023/06/05 12:19:03;;;;;;;10.20;4.95;;;;;;;17.78;56.83;99903.50;6131621;23;20014;-91
2023/06/05 12:21:38;;;;;;;15.38;6.97;;;;;;;17.87;57.14;99881.28;6107328;23;20030;-91
2023/06/05 12:24:56;;;;;;;24.63;7.35;;;;;;;18.77;56.17;99965.81;6094959;23;20018;-89
2023/06/05 12:28:22;;;;;;;10.55;4.68;;;;;;;19.17;54.47;99957.47;6125733;23;20470;-89
2023/06/05 12:34:18;;;;;;;19.30;4.43;;;;;;;19.00;52.81;99930.06;6098276;23;20029;-89
2023/06/05 12:37:12;;;;;;;12.35;3.28;;;;;;;19.40;53.44;99956.84;6100806;23;20386;-89
2023/06/05 12:39:51;;;;;;;12.70;3.92;;;;;;;18.91;50.07;99887.88;6099147;23;20613;-89
2023/06/05 12:42:38;;;;;;;8.60;2.85;;;;;;;19.00;51.75;99894.81;6105264;23;20041;-87
2023/06/05 12:45:06;;;;;;;13.55;3.25;;;;;;;18.55;51.07;99920.88;6133970;23;20025;-88
2023/06/05 12:48:35;;;;;;;8.25;2.70;;;;;;;18.55;48.65;99934.72;6103455;23;20559;-87
2023/06/05 12:51:09;;;;;;;12.88;4.32;;;;;;;18.43;51.45;99936.72;6075864;23;20412;31
2023/06/05 12:54:00;;;;;;;9.43;3.83;;;;;;;18.61;50.12;99928.94;6122302;23;20025;-89
2023/06/05 12:56:38;;;;;;;10.40;2.85;;;;;;;18.23;51.26;99880.38;6185316;23;20021;-87
2023/06/05 12:59:07;;;;;;;12.02;3.92;;;;;;;18.67;49.79;99872.94;6156640;23;20032;-87
2023/06/05 13:01:40;;;;;;;6.47;2.90;;;;;;;18.83;49.12;99903.47;6183173;23;20017;-88
2023/06/05 13:04:34;;;;;;;5.60;2.78;;;;;;;18.98;47.54;99933.19;6184744;23;20356;-89
2023/06/05 13:07:07;;;;;;;5.35;2.38;;;;;;;18.99;47.98;99932.03;6180241;23;20340;-89
2023/06/05 13:09:35;;;;;;;6.63;2.80;;;;;;;18.73;48.22;99912.28;6157892;23;20359;-87
2023/06/05 13:12:03;;;;;;;14.45;3.10;;;;;;;18.53;47.58;99905.78;6133731;23;20028;-88
2023/06/05 13:14:35;;;;;;;9.65;2.60;;;;;;;18.51;49.68;99933.03;6155762;23;20348;-88
2023/06/05 13:17:07;;;;;;;4.68;2.42;;;;;;;18.53;48.08;99906.56;6156309;23;20021;-88
2023/06/05 13:19:57;;;;;;;7.03;2.55;;;;;;;18.48;48.11;99854.25;6160860;23;20021;-88
2023/06/05 13:22:23;;;;;;;6.80;2.80;;;;;;;18.63;48.75;99887.84;6155372;23;20094;-87
2023/06/05 13:25:15;;;;;;;6.63;2.50;;;;;;;18.99;46.89;99922.91;6156709;23;20463;-88
2023/06/05 13:27:41;;;;;;;8.32;3.28;;;;;;;18.65;47.01;99888.31;6183575;23;20092;-89
2023/06/05 13:30:58;;;;;;;7.30;3.22;;;;;;;19.06;46.68;99925.06;6182588;23;20048;-88
2023/06/05 13:34:15;;;;;;;4.22;2.60;;;;;;;19.37;45.66;99925.09;6162963;23;20020;-89
2023/06/05 13:36:42;;;;;;;8.27;2.60;;;;;;;19.18;46.73;99872.34;6182732;23;20013;-87
2023/06/05 13:39:20;;;;;;;13.00;2.60;;;;;;;19.30;47.03;99902.72;6183500;23;20017;-88
2023/06/05 13:41:46;;;;;;;9.02;3.30;;;;;;;19.07;46.80;99882.31;6182380;23;20017;-87
2023/06/05 13:44:26;;;;;;;5.45;2.85;;;;;;;18.58;48.13;99855.69;6157393;23;20024;-89
2023/06/05 13:51:58;;;;;;;21.90;3.58;;;;;;;18.90;47.32;99911.97;6152962;23;20063;-87
2023/06/05 14:01:33;;;;;;;11.23;3.40;;;;;;;19.01;47.78;99845.78;5419291;23;15159602;-88
2023/06/05 14:16:37;;;;;;;13.73;3.20;;;;;;;20.77;40.81;99875.53;6037794;23;20029;-88
2023/06/05 14:19:03;;;;;;;6.90;4.05;;;;;;;20.47;42.72;99844.75;6008691;23;20450;-87
2023/06/05 14:30:23;;;;;;;8.27;3.10;;;;;;;20.54;41.27;99872.69;6152087;23;20064;-87
2023/06/05 14:33:48;;;;;;;11.02;2.80;;;;;;;20.71;39.74;99874.22;6132018;23;20108;-85
2023/06/05 14:36:15;;;;;;;6.57;2.78;;;;;;;20.60;38.26;99863.69;6166171;23;20021;-90
2023/06/05 14:38:50;;;;;;;5.13;2.67;;;;;;;20.57;38.26;99844.97;6160460;23;20024;-88
2023/06/05 14:41:41;;;;;;;7.30;2.80;;;;;;;20.75;35.91;99869.53;6149156;23;20021;-84
2023/06/05 14:44:26;;;;;;;11.55;3.20;;;;;;;20.63;39.16;99848.28;6129884;23;20025;-85
2023/06/05 14:47:12;;;;;;;5.50;3.00;;;;;;;20.71;37.10;99844.44;6137328;23;20343;-83
2023/06/05 14:49:42;;;;;;;8.50;2.43;;;;;;;20.81;36.06;99843.84;6156346;23;20021;-83
2023/06/05 14:56:37;;;;;;;13.43;2.88;;;;;;;21.14;36.01;99864.69;6238455;23;20119;-89
2023/06/05 15:16:33;;;;;;;3.88;2.22;;;;;;;19.48;37.23;99814.44;6212494;23;20029;-86
2023/06/05 15:19:58;;;;;;;11.80;3.42;;;;;;;19.92;38.33;99876.13;6210599;23;20016;-87
2023/06/05 15:37:20;;;;;;;8.65;2.60;;;;;;;19.64;39.51;99872.69;6156690;23;20044;-90
2023/06/05 15:40:18;;;;;;;9.32;2.63;;;;;;;19.14;40.46;99802.97;6129484;23;20017;-86
2023/06/05 15:46:21;;;;;;;5.78;3.03;;;;;;;19.05;39.71;99837.56;6141235;23;20037;-91
2023/06/05 15:49:12;;;;;;;12.55;3.10;;;;;;;19.34;40.67;99891.75;6122995;23;20028;-89
2023/06/05 15:52:00;;;;;;;9.75;3.40;;;;;;;19.13;41.65;99883.69;6118661;23;20058;-89
2023/06/05 15:57:30;;;;;;;12.13;3.22;;;;;;;18.78;41.37;99832.53;6158941;23;20029;-91
2023/06/05 16:17:16;;;;;;;20.27;5.82;;;;;;;18.95;42.49;99878.47;6186604;23;20021;-91
2023/06/05 16:26:25;;;;;;;20.23;5.05;;;;;;;18.93;43.28;99880.78;6183820;23;20033;31
2023/06/05 16:44:14;;;;;;;8.63;2.80;;;;;;;17.74;44.34;99803.03;6189714;23;20478;-92
2023/06/05 17:00:08;;;;;;;8.60;3.17;;;;;;;17.78;48.15;99862.88;6168863;23;20049;-91
2023/06/05 17:03:54;;;;;;;12.93;3.25;;;;;;;17.85;46.74;99889.94;6175170;22;20022;31
2023/06/05 17:11:22;;;;;;;;;;;;;;;;;;;;;
2023/06/05 17:18:18;;;;;;;23.52;3.95;;;;;;;17.10;50.50;99813.66;6170997;23;20031;-92
2023/06/05 17:32:15;;;;;;;143.37;68.40;;;;;;;17.08;52.70;99890.53;6144480;23;20579;-85
2023/06/05 17:38:05;;;;;;;276.73;128.05;;;;;;;16.90;53.59;99892.69;6147930;22;20033;-87
2023/06/05 17:40:57;;;;;;;241.27;117.75;;;;;;;16.82;53.35;99898.31;6140206;23;20032;-89
2023/06/05 17:47:22;;;;;;;99.40;50.20;;;;;;;16.32;53.87;99850.34;6140647;23;20032;-85
2023/06/05 17:50:24;;;;;;;102.47;52.33;;;;;;;16.29;54.08;99856.59;6147171;23;20025;-90
2023/06/05 17:52:57;;;;;;;210.07;112.82;;;;;;;16.48;54.75;99902.19;6058500;23;20048;-87
2023/06/05 17:55:43;;;;;;;139.13;74.60;;;;;;;16.33;55.05;99885.09;6144824;23;20018;-87
2023/06/05 17:58:09;;;;;;;107.20;58.70;;;;;;;16.16;54.79;99868.69;6146172;23;20120;-88
2023/06/05 18:01:04;;;;;;;76.53;42.20;;;;;;;16.27;55.65;99902.19;6142136;23;20067;-90
2023/06/05 18:19:41;;;;;;;34.40;18.70;;;;;;;15.69;56.64;99874.34;6088963;23;20038;-88
2023/06/05 18:22:07;;;;;;;38.78;17.50;;;;;;;15.90;56.55;99913.00;6081053;23;20376;-85
2023/06/05 18:24:36;;;;;;;50.17;28.13;;;;;;;15.79;55.89;99897.97;6083547;23;20022;-86
2023/06/05 18:27:02;;;;;;;77.60;47.22;;;;;;;15.98;56.91;99926.72;6081945;23;20030;-86
2023/06/05 18:29:49;;;;;;;92.38;58.42;;;;;;;15.59;56.52;99875.50;6087788;23;20025;-85
2023/06/05 18:32:44;;;;;;;61.17;37.72;;;;;;;15.42;56.87;99856.31;6088393;23;20141;-89
2023/06/05 18:35:38;;;;;;;26.55;14.25;;;;;;;15.80;56.14;99921.66;6058797;23;20026;-86
2023/06/05 18:38:09;;;;;;;35.88;14.48;;;;;;;15.58;56.83;99903.41;6032445;23;20528;-83
2023/06/05 18:40:46;;;;;;;27.30;9.10;;;;;;;15.69;55.86;99922.03;6055270;23;20366;-85
2023/06/05 18:43:12;;;;;;;20.98;8.70;;;;;;;15.79;56.45;99939.31;6080450;23;20085;-85
2023/06/05 18:45:38;;;;;;;19.23;7.35;;;;;;;15.63;56.72;99933.53;6080096;23;20930;-83
2023/06/05 18:48:05;;;;;;;26.07;9.13;;;;;;;15.37;57.18;99922.63;6077222;23;20653;-85
2023/06/05 18:50:31;;;;;;;15.23;5.40;;;;;;;15.21;54.34;99914.91;6078008;23;20033;-83
2023/06/05 18:52:59;;;;;;;12.98;4.88;;;;;;;15.55;54.38;99939.91;6079678;23;20089;-85
2023/06/05 18:55:51;;;;;;;23.08;5.50;;;;;;;15.58;54.83;99948.31;6082074;23;20034;-88
2023/06/05 18:58:30;;;;;;;10.27;3.95;;;;;;;15.24;53.15;99899.69;6080680;23;20021;-87
2023/06/05 19:01:17;;;;;;;7.90;4.68;;;;;;;15.59;53.05;99947.16;6034018;23;20033;-88
2023/06/05 19:03:52;;;;;;;7.53;4.07;;;;;;;15.45;52.49;99930.06;6065660;23;20069;-87
2023/06/05 19:06:45;;;;;;;19.52;5.32;;;;;;;15.51;52.31;99948.03;6078281;23;20018;-87
2023/06/05 19:09:47;;;;;;;10.15;4.10;;;;;;;15.49;52.14;99944.78;6051642;23;20045;-86
2023/06/05 19:12:22;;;;;;;10.77;3.70;;;;;;;15.48;52.57;99951.44;6082169;23;20022;-85
2023/06/05 19:14:50;;;;;;;11.43;3.78;;;;;;;15.45;52.49;99950.13;6090385;23;20022;-85
2023/06/05 19:17:16;;;;;;;8.75;3.38;;;;;;;15.47;51.82;99949.84;6067593;23;20018;-86
2023/06/05 19:19:42;;;;;;;12.83;3.60;;;;;;;15.32;51.02;99933.81;6070447;23;20026;-85
2023/06/05 19:22:10;;;;;;;8.15;3.05;;;;;;;15.40;51.32;99958.59;6122100;23;20849;-85
2023/06/05 19:24:35;;;;;;;8.18;2.75;;;;;;;15.30;51.19;99941.59;6114339;23;20018;-84
2023/06/05 19:27:04;;;;;;;10.50;3.22;;;;;;;15.40;50.67;99952.28;6122218;23;20041;-84
2023/06/05 19:29:33;;;;;;;5.80;2.90;;;;;;;15.31;50.57;99937.72;6094820;23;20030;-85
2023/06/05 19:32:02;;;;;;;9.18;3.10;;;;;;;15.41;50.57;99953.91;6071588;23;20042;-84
2023/06/05 19:34:31;;;;;;;9.07;2.97;;;;;;;15.37;50.43;99947.44;6074041;23;20018;-84
2023/06/05 19:36:57;;;;;;;7.32;3.58;;;;;;;15.41;50.83;99957.47;6073546;23;20018;-85
2023/06/05 19:39:23;;;;;;;7.65;2.90;;;;;;;15.26;51.58;99933.19;6120726;23;20018;-84
2023/06/05 19:41:51;;;;;;;12.32;3.10;;;;;;;15.32;50.33;99955.88;6124239;23;20042;-86
2023/06/05 19:44:20;;;;;;;6.75;2.53;;;;;;;15.30;50.95;99953.44;6099106;23;20020;-85
2023/06/05 19:46:49;;;;;;;8.63;3.40;;;;;;;15.33;51.13;99960.22;6125257;23;20018;-90